Time;durP1;ratioP1;P1;durP2;ratioP2;P2;SDS_P1;SDS_P2;PMS_P1;PMS_P2;Temp;Humidity;BMP_temperature;BMP_pressure;BME280_temperature;BME280_humidity;BME280_pressure;Samples;Min_cycle;Max_cycle;Signal;HPM_P1;HPM_P2
2021/05/13 04:00:37;;;;;;;9.60;8.60;;;11.70;99.90;;;;;;6027982;23;20426;31
2021/05/13 04:03:03;;;;;;;10.77;9.77;;;11.70;99.90;;;;;;4955715;28;20459;-66
2021/05/13 04:05:30;;;;;;;9.63;8.73;;;11.70;99.90;;;;;;4956683;29;20448;-66
2021/05/13 04:07:56;;;;;;;9.43;8.50;;;11.70;99.90;;;;;;4966725;29;20479;-66
2021/05/13 04:10:23;;;;;;;9.70;8.63;;;11.80;99.90;;;;;;4956410;29;20787;-65
2021/05/13 04:12:51;;;;;;;9.13;8.23;;;11.80;99.90;;;;;;4956252;28;20459;-66
2021/05/13 04:15:17;;;;;;;9.90;8.90;;;11.80;99.90;;;;;;4956735;28;20546;-65
2021/05/13 04:17:44;;;;;;;9.83;8.80;;;11.70;99.90;;;;;;4957009;29;20451;-66
2021/05/13 04:20:11;;;;;;;9.57;8.67;;;11.70;99.90;;;;;;4956531;29;20455;-65
2021/05/13 04:22:37;;;;;;;9.50;8.57;;;11.60;99.90;;;;;;4956456;28;20463;-65
2021/05/13 04:25:05;;;;;;;9.70;8.70;;;11.70;99.90;;;;;;4956502;29;20455;-66
2021/05/13 04:27:31;;;;;;;8.13;7.33;;;11.60;99.90;;;;;;4956421;29;20455;-66
2021/05/13 04:29:57;;;;;;;11.43;8.80;;;11.60;99.90;;;;;;4956015;29;20463;-65
2021/05/13 04:32:23;;;;;;;9.27;8.30;;;11.60;99.90;;;;;;4956341;29;20479;-65
2021/05/13 04:34:50;;;;;;;10.50;8.60;;;11.60;99.90;;;;;;4955732;29;20466;-66
2021/05/13 04:37:17;;;;;;;8.97;8.07;;;11.70;99.90;;;;;;4955847;29;20962;-66
2021/05/13 04:39:43;;;;;;;11.47;9.33;;;11.60;99.90;;;;;;4956140;29;20458;-65
2021/05/13 04:42:09;;;;;;;9.57;8.77;;;11.50;99.90;;;;;;4955964;29;20487;-65
2021/05/13 04:44:36;;;;;;;10.17;9.07;;;11.50;99.90;;;;;;4956130;28;20463;-66
2021/05/13 04:47:19;;;;;;;9.27;8.37;;;11.50;99.90;;;;;;4955967;29;20493;-65
2021/05/13 04:49:45;;;;;;;10.33;8.57;;;11.50;99.90;;;;;;4966768;29;20431;-66
2021/05/13 04:52:12;;;;;;;10.20;9.30;;;11.60;99.90;;;;;;4967616;29;20471;-66
2021/05/13 04:54:38;;;;;;;10.97;10.00;;;11.60;99.90;;;;;;4959910;29;20534;-65
2021/05/13 04:57:05;;;;;;;11.50;9.63;;;11.60;99.90;;;;;;4958190;29;20958;-64
2021/05/13 04:59:32;;;;;;;10.93;9.63;;;11.70;99.90;;;;;;4958777;28;20456;-67
2021/05/13 05:01:58;;;;;;;10.37;8.97;;;11.70;99.90;;;;;;4957228;29;20530;-65
2021/05/13 05:04:24;;;;;;;15.97;9.40;;;11.80;99.90;;;;;;4956131;29;20506;-65
2021/05/13 05:06:50;;;;;;;8.70;7.80;;;11.90;99.90;;;;;;4955943;29;20458;-66
2021/05/13 05:09:17;;;;;;;10.00;9.10;;;11.90;99.90;;;;;;4956467;29;20518;-66
2021/05/13 05:11:44;;;;;;;10.57;9.37;;;11.90;99.90;;;;;;4956079;29;21005;-66
2021/05/13 05:14:10;;;;;;;11.07;9.47;;;12.00;99.90;;;;;;4956112;29;20460;-65
2021/05/13 05:16:36;;;;;;;8.63;7.83;;;11.90;99.90;;;;;;4955525;29;20459;-65
2021/05/13 05:19:02;;;;;;;10.10;9.20;;;11.90;99.90;;;;;;4956011;29;20462;-64
2021/05/13 05:21:29;;;;;;;13.03;10.47;;;12.10;99.90;;;;;;4955684;29;20479;-66
2021/05/13 05:23:55;;;;;;;12.93;9.90;;;12.30;99.90;;;;;;4955733;28;20467;-65
2021/05/13 05:26:22;;;;;;;12.13;11.13;;;12.40;99.90;;;;;;4959505;29;20456;-64
2021/05/13 05:28:48;;;;;;;11.03;9.87;;;12.50;99.90;;;;;;4959055;29;20479;-66
2021/05/13 05:31:14;;;;;;;10.40;9.40;;;12.60;99.90;;;;;;4959288;29;20475;-65
2021/05/13 05:33:41;;;;;;;9.87;8.90;;;12.70;99.90;;;;;;4959299;29;20981;-65
2021/05/13 05:36:07;;;;;;;9.83;9.03;;;12.90;99.90;;;;;;4959415;29;21005;-65
2021/05/13 05:38:33;;;;;;;8.53;7.83;;;13.30;99.90;;;;;;4962878;29;20432;-65
2021/05/13 05:40:59;;;;;;;10.07;9.17;;;13.40;99.90;;;;;;4960910;29;20486;-65
2021/05/13 05:43:26;;;;;;;10.50;9.57;;;13.60;99.90;;;;;;4959219;29;20510;-64
2021/05/13 05:45:52;;;;;;;12.20;10.87;;;13.40;99.90;;;;;;4959167;29;20455;-65
2021/05/13 05:48:19;;;;;;;11.67;10.57;;;13.30;99.90;;;;;;4958935;29;20846;-65
2021/05/13 05:50:45;;;;;;;11.30;10.30;;;13.20;99.90;;;;;;4958867;29;21061;-65
2021/05/13 05:53:11;;;;;;;11.03;10.13;;;13.20;99.90;;;;;;4959124;29;20459;-64
2021/05/13 05:55:38;;;;;;;11.07;10.17;;;13.30;99.90;;;;;;4959206;29;20459;-64
2021/05/13 05:58:04;;;;;;;10.63;9.70;;;13.30;99.90;;;;;;4960143;29;20849;-65
2021/05/13 06:00:32;;;;;;;11.27;10.20;;;13.40;99.90;;;;;;4959315;29;20486;-65
2021/05/13 06:02:59;;;;;;;11.47;9.00;;;13.30;99.90;;;;;;4959196;28;20444;-65
2021/05/13 06:05:26;;;;;;;10.40;9.43;;;13.50;99.90;;;;;;4959070;29;20456;-67
2021/05/13 06:07:53;;;;;;;9.03;8.30;;;13.40;99.90;;;;;;4958653;29;20487;-65
2021/05/13 06:10:19;;;;;;;10.23;9.17;;;13.50;99.90;;;;;;4959064;29;20464;-65
2021/05/13 06:12:47;;;;;;;10.37;9.30;;;13.70;99.90;;;;;;4958487;29;20814;-65
2021/05/13 06:15:15;;;;;;;10.50;8.77;;;13.90;99.90;;;;;;4958386;29;20474;-64
2021/05/13 06:17:43;;;;;;;12.10;7.90;;;14.10;99.90;;;;;;4958337;29;20462;-66
2021/05/13 06:20:17;;;;;;;8.50;7.90;;;14.50;99.90;;;;;;4958230;29;20456;-66
2021/05/13 06:22:44;;;;;;;7.83;7.17;;;14.80;99.90;;;;;;4958448;29;20450;-65
2021/05/13 06:25:11;;;;;;;6.93;6.23;;;15.30;99.90;;;;;;4958729;29;20471;-65
2021/05/13 06:27:37;;;;;;;6.90;6.20;;;15.70;99.90;;;;;;4957885;29;20455;-66
2021/05/13 06:30:04;;;;;;;7.00;5.73;;;16.20;99.90;;;;;;4957837;29;20463;-65
2021/05/13 06:32:31;;;;;;;7.13;5.00;;;16.80;99.90;;;;;;4957870;29;20497;-65
2021/05/13 06:34:58;;;;;;;5.97;5.13;;;17.10;99.90;;;;;;4957406;28;20954;-65
2021/05/13 06:37:24;;;;;;;5.53;5.03;;;17.50;99.90;;;;;;4957159;29;20456;-66
2021/05/13 06:39:51;;;;;;;9.17;5.67;;;18.00;99.90;;;;;;4958005;29;20443;-64
2021/05/13 06:42:17;;;;;;;5.90;5.50;;;18.40;99.90;;;;;;4957754;29;20535;-64
2021/05/13 06:44:43;;;;;;;5.67;5.20;;;18.50;99.90;;;;;;4957998;29;20986;-64
2021/05/13 06:47:11;;;;;;;7.87;5.70;;;19.30;99.90;;;;;;4957706;29;20463;-64
2021/05/13 06:49:38;;;;;;;6.20;5.70;;;19.90;99.90;;;;;;4957831;28;20479;-63
2021/05/13 06:52:06;;;;;;;5.07;4.70;;;20.40;99.90;;;;;;4957871;29;20475;-64
2021/05/13 06:54:32;;;;;;;5.33;4.73;;;20.90;99.90;;;;;;4957514;29;20550;-65
2021/05/13 06:56:58;;;;;;;4.40;4.10;;;20.60;99.90;;;;;;4957530;29;20467;-64
2021/05/13 06:59:25;;;;;;;9.47;5.47;;;19.80;99.90;;;;;;4957737;29;20451;-66
2021/05/13 07:01:54;;;;;;;5.47;4.97;;;20.30;99.90;;;;;;4957510;29;20829;-66
2021/05/13 07:04:20;;;;;;;6.90;5.47;;;20.30;99.90;;;;;;4957661;29;20459;-67
2021/05/13 07:06:47;;;;;;;5.20;4.80;;;20.70;99.90;;;;;;4957396;29;20459;-67
2021/05/13 07:09:14;;;;;;;5.10;4.60;;;21.70;99.90;;;;;;4958616;29;21056;-66
2021/05/13 07:11:40;;;;;;;5.50;4.63;;;22.40;99.90;;;;;;4958501;29;20841;-66
2021/05/13 07:14:06;;;;;;;4.90;4.50;;;22.30;99.90;;;;;;4957479;29;20462;-66
2021/05/13 07:16:33;;;;;;;6.40;3.93;;;22.50;99.60;;;;;;4957148;29;20456;-65
2021/05/13 07:18:59;;;;;;;5.67;4.30;;;22.50;99.40;;;;;;4957024;29;20447;-66
2021/05/13 07:21:26;;;;;;;4.47;3.40;;;22.90;99.90;;;;;;4957011;29;20475;-66
2021/05/13 07:23:52;;;;;;;4.80;4.13;;;23.40;98.50;;;;;;4957130;29;20467;-66
2021/05/13 07:26:19;;;;;;;6.17;4.30;;;24.20;96.70;;;;;;4957583;29;20535;-66
2021/05/13 07:28:46;;;;;;;4.63;4.30;;;24.40;94.80;;;;;;4956913;29;20479;-66
2021/05/13 07:31:12;;;;;;;5.10;4.30;;;24.40;93.20;;;;;;4956739;29;20480;-65
2021/05/13 07:33:39;;;;;;;5.20;4.00;;;24.50;90.20;;;;;;4957852;29;20459;-65
2021/05/13 07:36:05;;;;;;;4.40;3.57;;;23.60;90.00;;;;;;4957147;29;20455;-65
2021/05/13 07:38:31;;;;;;;4.60;3.80;;;23.80;91.20;;;;;;4957302;29;20452;-65
2021/05/13 07:40:59;;;;;;;4.17;3.80;;;24.30;88.80;;;;;;4957219;29;20504;-65
2021/05/13 07:43:26;;;;;;;4.60;3.70;;;25.00;89.50;;;;;;4956686;29;20510;-66
2021/05/13 07:45:53;;;;;;;3.90;3.60;;;25.30;86.50;;;;;;4956932;29;20464;-67
2021/05/13 07:48:19;;;;;;;7.10;3.97;;;25.60;84.30;;;;;;4956362;28;20515;-64
2021/05/13 07:50:47;;;;;;;3.73;3.43;;;25.10;82.40;;;;;;4957732;29;20511;-66
2021/05/13 07:53:13;;;;;;;3.87;2.73;;;24.30;82.00;;;;;;4956798;29;20456;-64
2021/05/13 07:55:39;;;;;;;3.20;2.90;;;24.80;80.40;;;;;;4956509;29;20459;-63
2021/05/13 07:58:05;;;;;;;4.93;2.70;;;25.20;80.50;;;;;;4956925;29;20459;-64
2021/05/13 08:00:33;;;;;;;2.80;2.70;;;25.50;76.70;;;;;;4957891;29;20558;-65
2021/05/13 08:02:59;;;;;;;3.80;3.10;;;25.90;75.40;;;;;;4955454;29;20445;-65
2021/05/13 08:05:25;;;;;;;3.70;2.60;;;26.20;74.90;;;;;;4955620;29;20459;-64
2021/05/13 08:07:52;;;;;;;4.10;2.73;;;26.50;67.80;;;;;;4955737;29;20533;-65
2021/05/13 08:10:18;;;;;;;3.40;2.77;;;26.60;71.70;;;;;;4955348;29;20455;-65
2021/05/13 08:12:44;;;;;;;3.60;2.67;;;26.70;69.10;;;;;;4955934;29;20482;-65
2021/05/13 08:15:12;;;;;;;3.53;2.77;;;27.00;66.90;;;;;;4955890;29;20811;-65
2021/05/13 08:17:40;;;;;;;3.07;2.60;;;26.90;69.80;;;;;;4955720;28;20455;-65
2021/05/13 08:20:08;;;;;;;2.77;2.57;;;27.30;67.10;;;;;;4955489;29;20451;-65
2021/05/13 08:22:35;;;;;;;5.67;3.23;;;26.50;66.00;;;;;;4955716;29;20479;-66
2021/05/13 08:25:02;;;;;;;4.13;3.50;;;26.90;65.30;;;;;;4955285;29;20460;-66
2021/05/13 08:27:30;;;;;;;3.93;2.90;;;25.20;67.20;;;;;;4955574;29;20523;-65
2021/05/13 08:29:56;;;;;;;3.00;2.80;;;25.50;68.10;;;;;;4955401;29;20486;-65
2021/05/13 08:32:22;;;;;;;6.10;3.30;;;25.20;69.30;;;;;;4955251;29;20476;-65
2021/05/13 08:34:49;;;;;;;6.10;3.10;;;24.50;70.10;;;;;;4955346;29;20456;-65
2021/05/13 08:37:16;;;;;;;4.40;2.50;;;23.90;76.50;;;;;;4955474;29;20459;-66
2021/05/13 08:39:42;;;;;;;3.67;2.63;;;24.60;74.00;;;;;;4957046;29;20498;-65
2021/05/13 08:42:08;;;;;;;4.10;2.70;;;25.50;69.70;;;;;;4962703;29;20481;-65
2021/05/13 08:44:35;;;;;;;3.27;2.90;;;25.80;67.70;;;;;;4955810;29;20518;-65
2021/05/13 08:47:01;;;;;;;3.93;2.80;;;26.10;64.00;;;;;;4954928;29;20553;-65
2021/05/13 08:49:28;;;;;;;3.80;3.10;;;25.90;66.50;;;;;;4955486;29;20539;-66
2021/05/13 08:51:55;;;;;;;2.83;2.60;;;26.00;69.00;;;;;;4955500;29;20479;-65
2021/05/13 08:54:23;;;;;;;3.13;2.93;;;24.60;71.40;;;;;;4955797;29;20470;-64
2021/05/13 08:56:50;;;;;;;3.40;3.00;;;22.90;75.30;;;;;;4955209;29;20915;-65
2021/05/13 08:59:16;;;;;;;4.53;2.60;;;23.50;75.50;;;;;;4958001;28;20462;-64
2021/05/13 09:01:56;;;;;;;2.93;2.43;;;23.20;73.60;;;;;;4946055;28;532897;-65
2021/05/13 09:04:22;;;;;;;4.20;3.00;;;23.50;70.60;;;;;;4959930;29;20192;-65
2021/05/13 09:06:49;;;;;;;3.77;2.40;;;24.10;76.20;;;;;;4959501;29;20459;-67
2021/05/13 09:09:18;;;;;;;3.30;2.70;;;24.60;72.60;;;;;;4959946;29;20487;-66
2021/05/13 09:11:49;;;;;;;2.90;2.30;;;25.00;69.70;;;;;;4959580;29;20845;-65
2021/05/13 09:14:21;;;;;;;3.27;2.93;;;25.40;75.10;;;;;;4960019;29;20455;-65
2021/05/13 09:16:49;;;;;;;3.67;2.90;;;25.60;70.60;;;;;;4959712;29;20446;-65
2021/05/13 09:19:23;;;;;;;5.20;2.93;;;25.70;71.60;;;;;;4959704;29;20542;-66
2021/05/13 09:21:57;;;;;;;4.43;2.87;;;25.60;69.70;;;;;;4961149;29;20475;-65
2021/05/13 09:24:45;;;;;;;4.37;2.70;;;26.10;69.60;;;;;;4962892;29;20462;-66
2021/05/13 09:27:16;;;;;;;6.43;2.67;;;26.00;68.90;;;;;;4961861;28;20514;-65
2021/05/13 09:29:42;;;;;;;3.33;2.70;;;25.00;65.50;;;;;;4960208;29;20505;-65
2021/05/13 09:32:17;;;;;;;3.80;2.67;;;25.20;65.90;;;;;;4959461;29;20482;-65
2021/05/13 09:34:44;;;;;;;2.80;2.27;;;24.90;67.60;;;;;;4959743;28;20439;-66
2021/05/13 09:37:10;;;;;;;3.93;2.47;;;25.00;67.00;;;;;;4959366;29;20531;-65
2021/05/13 09:39:36;;;;;;;2.73;2.43;;;24.40;63.50;;;;;;4959419;29;20456;-65
2021/05/13 09:42:05;;;;;;;3.70;2.60;;;23.20;68.60;;;;;;4959359;29;20486;-66
2021/05/13 09:44:33;;;;;;;3.20;2.90;;;22.90;69.10;;;;;;4959191;29;20463;-66
2021/05/13 09:47:16;;;;;;;2.60;2.40;;;22.60;72.30;;;;;;4959114;29;20455;-65
2021/05/13 09:50:10;;;;;;;3.13;2.63;;;22.90;76.90;;;;;;4959093;29;20474;-66
2021/05/13 09:52:45;;;;;;;2.90;2.70;;;23.30;70.60;;;;;;4963665;29;20482;-65
2021/05/13 09:55:20;;;;;;;2.90;2.60;;;23.40;71.90;;;;;;4965544;28;20439;-65
2021/05/13 09:58:04;;;;;;;3.77;3.43;;;23.50;68.00;;;;;;4963669;29;20799;-64
2021/05/13 10:00:42;;;;;;;4.73;2.40;;;23.40;69.30;;;;;;4960943;29;20449;-65
2021/05/13 10:03:11;;;;;;;3.37;1.93;;;23.30;75.70;;;;;;4959271;29;20464;-64
2021/05/13 10:05:38;;;;;;;1.60;1.50;;;23.60;74.10;;;;;;4959102;29;20455;-64
2021/05/13 10:08:05;;;;;;;1.90;1.63;;;23.60;69.30;;;;;;4959348;29;20462;-66
2021/05/13 10:10:32;;;;;;;4.63;2.30;;;23.20;70.00;;;;;;4959331;28;20460;-66
2021/05/13 10:12:58;;;;;;;2.40;1.90;;;23.00;70.60;;;;;;4964030;29;20473;-65
2021/05/13 10:15:26;;;;;;;6.47;2.60;;;22.70;74.80;;;;;;4963689;29;20872;-64
2021/05/13 10:17:56;;;;;;;5.27;1.90;;;22.80;72.80;;;;;;4958497;29;21073;-65
2021/05/13 10:20:25;;;;;;;3.10;2.73;;;22.30;74.40;;;;;;4958595;29;20455;-65
2021/05/13 10:22:51;;;;;;;2.73;1.90;;;22.40;73.60;;;;;;4959118;29;20502;-65
2021/05/13 10:25:23;;;;;;;2.27;2.13;;;21.80;76.20;;;;;;4958417;29;20451;-65
2021/05/13 10:27:53;;;;;;;6.43;1.97;;;21.30;76.20;;;;;;4958796;29;20456;-65
2021/05/13 10:30:29;;;;;;;6.17;2.10;;;21.60;77.50;;;;;;4960260;29;20439;-64
2021/05/13 10:33:15;;;;;;;1.93;1.53;;;21.70;79.60;;;;;;4961543;29;20439;-64
2021/05/13 10:36:00;;;;;;;4.40;1.90;;;22.00;79.80;;;;;;4958456;29;20444;-65
2021/05/13 10:38:42;;;;;;;1.97;1.70;;;22.00;81.20;;;;;;4958741;28;20467;-64
2021/05/13 10:41:37;;;;;;;5.30;1.77;;;22.20;78.20;;;;;;4958139;29;20480;-64
2021/05/13 10:44:38;;;;;;;1.50;1.40;;;22.00;77.50;;;;;;4957497;28;20455;-65
2021/05/13 10:47:10;;;;;;;3.63;1.70;;;22.00;78.60;;;;;;4958015;28;20463;-64
2021/05/13 10:49:47;;;;;;;1.80;1.40;;;21.80;83.00;;;;;;4957820;29;20496;-64
2021/05/13 10:52:30;;;;;;;5.00;1.90;;;21.70;79.40;;;;;;4957782;29;20475;-65
2021/05/13 10:54:57;;;;;;;2.20;1.60;;;21.50;76.00;;;;;;4957725;29;20514;-64
2021/05/13 10:57:24;;;;;;;3.33;2.10;;;21.30;79.10;;;;;;4958062;29;20565;-64
2021/05/13 11:00:33;;;;;;;4.60;2.00;;;21.30;79.00;;;;;;4957896;29;20455;-64
2021/05/13 11:03:19;;;;;;;1.87;1.40;;;21.50;82.20;;;;;;4943290;28;20463;-64
2021/05/13 11:05:45;;;;;;;2.50;1.33;;;21.30;78.20;;;;;;4957848;29;20458;-64
2021/05/13 11:08:26;;;;;;;3.90;1.60;;;21.50;75.90;;;;;;4957687;29;20989;-63
2021/05/13 11:10:58;;;;;;;6.37;2.10;;;21.50;79.70;;;;;;4957482;29;20502;-64
2021/05/13 11:13:39;;;;;;;2.93;1.87;;;21.80;80.80;;;;;;4957663;29;20946;-64
2021/05/13 11:16:05;;;;;;;2.43;1.53;;;21.70;78.80;;;;;;4957715;29;20883;-64
2021/05/13 11:18:33;;;;;;;2.10;1.40;;;22.00;78.50;;;;;;4957973;29;20455;-64
2021/05/13 11:21:00;;;;;;;1.67;1.40;;;22.10;77.30;;;;;;4957657;29;20535;-64
2021/05/13 11:23:28;;;;;;;2.23;1.90;;;22.10;76.60;;;;;;4957997;28;20455;-64
2021/05/13 11:25:56;;;;;;;2.87;1.77;;;22.10;80.10;;;;;;4959937;29;20483;-64
2021/05/13 11:28:34;;;;;;;1.53;1.43;;;22.30;79.60;;;;;;4959747;29;20483;-63
2021/05/13 11:31:13;;;;;;;2.33;2.03;;;22.30;80.80;;;;;;4960073;29;20501;-63
2021/05/13 11:33:42;;;;;;;4.43;1.83;;;22.10;82.00;;;;;;4959214;28;20444;-63
2021/05/13 11:36:09;;;;;;;5.60;1.80;;;21.80;83.50;;;;;;4958095;29;20466;-63
2021/05/13 11:38:36;;;;;;;8.43;2.20;;;21.40;82.60;;;;;;4957315;29;20543;-64
2021/05/13 11:41:04;;;;;;;3.20;1.50;;;20.90;84.20;;;;;;4957647;29;20476;-63
2021/05/13 11:43:32;;;;;;;2.90;1.60;;;20.70;88.20;;;;;;4957716;29;20496;-63
2021/05/13 11:45:59;;;;;;;2.37;1.40;;;20.70;91.50;;;;;;4963879;29;20460;-64
2021/05/13 11:48:32;;;;;;;1.50;1.07;;;20.50;86.40;;;;;;4957034;29;20475;-63
2021/05/13 11:51:01;;;;;;;1.53;1.20;;;20.50;87.00;;;;;;4957097;29;20526;-64
2021/05/13 11:53:28;;;;;;;2.90;1.50;;;20.10;87.10;;;;;;4956989;29;20530;-64
2021/05/13 11:55:55;;;;;;;2.43;1.53;;;20.00;90.90;;;;;;4956890;29;20868;-63
2021/05/13 11:58:38;;;;;;;1.50;1.40;;;20.00;92.10;;;;;;4956858;29;20447;-63
2021/05/13 12:01:15;;;;;;;1.13;1.07;;;19.90;91.40;;;;;;4956771;28;20542;-63
2021/05/13 12:03:41;;;;;;;2.30;1.40;;;19.90;91.40;;;;;;4957067;29;20455;-63
2021/05/13 12:06:08;;;;;;;1.43;1.30;;;20.00;92.20;;;;;;4958333;28;20942;-63
2021/05/13 12:08:37;;;;;;;3.20;1.80;;;20.30;90.10;;;;;;4956877;28;20480;-65
2021/05/13 12:11:17;;;;;;;2.63;1.83;;;20.80;89.70;;;;;;4957056;29;20483;-65
2021/05/13 12:13:43;;;;;;;2.17;1.97;;;20.90;92.10;;;;;;4956240;29;20435;-64
2021/05/13 12:16:09;;;;;;;3.00;1.80;;;21.80;90.70;;;;;;4956730;29;20466;-64
2021/05/13 12:18:36;;;;;;;2.87;2.10;;;22.10;88.00;;;;;;4956479;29;20506;-64
2021/05/13 12:21:03;;;;;;;5.67;2.00;;;22.70;84.30;;;;;;4956242;29;20483;-65
2021/05/13 12:23:30;;;;;;;3.70;2.33;;;23.10;86.90;;;;;;4956080;29;20515;-64
2021/05/13 12:25:56;;;;;;;1.90;1.80;;;23.70;88.70;;;;;;4956187;29;20462;-65
2021/05/13 12:28:22;;;;;;;3.30;1.73;;;23.80;77.60;;;;;;4955813;29;20460;-65
2021/05/13 12:30:52;;;;;;;1.93;1.73;;;23.50;75.70;;;;;;4956195;29;20480;-65
2021/05/13 12:33:23;;;;;;;3.30;1.67;;;23.80;80.50;;;;;;4956106;28;20463;-65
2021/05/13 12:35:50;;;;;;;2.23;1.40;;;23.80;79.70;;;;;;4955922;29;20539;-65
2021/05/13 12:38:18;;;;;;;1.57;1.47;;;23.80;80.90;;;;;;4955748;29;20459;-64
2021/05/13 12:40:46;;;;;;;1.33;1.23;;;23.70;82.40;;;;;;4955466;29;20534;-63
2021/05/13 12:43:14;;;;;;;3.03;1.83;;;23.80;80.90;;;;;;4955986;28;20792;-64
2021/05/13 12:45:46;;;;;;;2.20;1.67;;;23.50;78.30;;;;;;4956284;29;20467;-63
2021/05/13 12:48:20;;;;;;;1.20;1.17;;;23.20;79.30;;;;;;4956530;29;20491;-64
2021/05/13 12:50:55;;;;;;;5.70;1.60;;;23.00;79.50;;;;;;4956172;29;20509;-63
2021/05/13 12:53:21;;;;;;;4.40;1.40;;;22.80;81.00;;;;;;4956036;29;20446;-64
2021/05/13 12:55:49;;;;;;;1.63;1.30;;;22.70;81.00;;;;;;4956534;29;20470;-63
2021/05/13 12:58:16;;;;;;;3.23;1.50;;;22.70;81.60;;;;;;4956602;29;20456;-63
2021/05/13 13:00:44;;;;;;;3.10;1.30;;;22.60;82.10;;;;;;4955696;29;20491;-62
2021/05/13 13:03:14;;;;;;;1.73;1.20;;;22.40;78.20;;;;;;4956365;29;20550;-63
2021/05/13 13:05:41;;;;;;;1.83;1.53;;;22.20;80.00;;;;;;4955587;29;20443;-63
2021/05/13 13:08:08;;;;;;;1.30;1.20;;;22.00;82.90;;;;;;4955606;29;20455;-63
2021/05/13 13:10:35;;;;;;;1.47;1.10;;;21.70;81.10;;;;;;4955467;29;20550;-64
2021/05/13 13:13:10;;;;;;;2.27;1.60;;;21.60;83.90;;;;;;4955431;29;20462;-63
2021/05/13 13:15:41;;;;;;;1.40;1.30;;;21.60;87.30;;;;;;4960054;29;20443;-63
2021/05/13 13:18:09;;;;;;;1.47;1.10;;;21.60;85.80;;;;;;4960481;29;20886;-63
2021/05/13 13:20:37;;;;;;;3.27;1.50;;;21.50;85.50;;;;;;4954981;29;21008;-62
2021/05/13 13:23:24;;;;;;;1.80;1.70;;;21.30;87.70;;;;;;4954963;29;20970;-63
2021/05/13 13:25:51;;;;;;;8.27;1.43;;;21.30;87.80;;;;;;4955196;29;20530;-63
2021/05/13 13:28:20;;;;;;;1.53;1.37;;;21.20;90.40;;;;;;4954813;29;20510;-62
2021/05/13 13:30:49;;;;;;;3.93;1.67;;;21.20;90.30;;;;;;4955582;28;20476;-62
2021/05/13 13:33:17;;;;;;;1.87;1.60;;;20.90;89.40;;;;;;4955396;29;20879;-63
2021/05/13 13:35:44;;;;;;;1.30;1.20;;;20.80;90.20;;;;;;4955198;28;20455;-63
2021/05/13 13:38:11;;;;;;;1.90;1.50;;;20.70;86.50;;;;;;4956160;29;20439;-63
2021/05/13 13:40:38;;;;;;;1.30;1.20;;;20.60;88.30;;;;;;4958415;29;20480;-62
2021/05/13 13:43:05;;;;;;;0.90;0.90;;;20.70;81.60;;;;;;4955794;29;20462;-63
2021/05/13 13:45:32;;;;;;;3.17;1.00;;;20.90;83.10;;;;;;4956220;28;20455;-65
2021/05/13 13:48:07;;;;;;;2.40;1.80;;;20.90;83.60;;;;;;4958105;29;20510;-62
2021/05/13 13:50:33;;;;;;;1.83;1.70;;;20.80;89.20;;;;;;4958826;29;20467;-62
2021/05/13 13:53:00;;;;;;;1.23;1.10;;;20.50;93.10;;;;;;4958896;29;20538;-62
2021/05/13 13:55:26;;;;;;;1.20;1.10;;;20.50;92.90;;;;;;4958315;29;20875;-64
2021/05/13 13:57:52;;;;;;;0.93;0.93;;;20.50;91.90;;;;;;4958271;29;20467;-62
2021/05/13 14:00:19;;;;;;;1.43;1.27;;;20.00;91.90;;;;;;4958244;29;20458;-64
2021/05/13 14:02:46;;;;;;;0.90;0.90;;;20.10;93.40;;;;;;4958614;28;20439;-64
2021/05/13 14:05:13;;;;;;;1.87;0.90;;;20.10;92.10;;;;;;4958151;29;20459;-62
2021/05/13 14:07:39;;;;;;;1.23;1.20;;;20.20;91.90;;;;;;4958477;28;20551;-63
2021/05/13 14:10:06;;;;;;;1.37;1.00;;;20.40;93.30;;;;;;4958147;29;20483;-63
2021/05/13 14:12:32;;;;;;;1.70;0.93;;;20.60;92.80;;;;;;4966416;29;20479;-62
2021/05/13 14:14:59;;;;;;;1.43;0.90;;;20.90;92.30;;;;;;4960923;29;20452;-62
2021/05/13 14:17:25;;;;;;;1.13;1.10;;;20.60;92.90;;;;;;4958629;29;20486;-61
2021/05/13 14:19:52;;;;;;;1.60;0.90;;;20.90;92.70;;;;;;4958086;29;20447;-61
2021/05/13 14:22:19;;;;;;;3.47;1.00;;;20.70;90.20;;;;;;4957957;29;20480;-62
2021/05/13 14:24:45;;;;;;;0.83;0.83;;;20.30;91.80;;;;;;4958367;29;20514;-62
2021/05/13 14:27:11;;;;;;;1.40;0.63;;;20.10;91.30;;;;;;4957848;29;20459;-62
2021/05/13 14:29:37;;;;;;;2.17;0.80;;;20.10;91.70;;;;;;4957787;29;20476;-62
2021/05/13 14:32:04;;;;;;;1.60;0.77;;;20.00;92.10;;;;;;4957547;29;20483;-62
2021/05/13 14:34:30;;;;;;;0.63;0.63;;;19.60;92.30;;;;;;4957735;29;20490;-62
2021/05/13 14:36:57;;;;;;;1.40;1.30;;;19.40;93.70;;;;;;4957634;29;20495;-62
2021/05/13 14:39:23;;;;;;;1.80;0.90;;;19.20;94.30;;;;;;4957532;29;20452;-61
2021/05/13 14:41:49;;;;;;;0.77;0.70;;;19.10;95.40;;;;;;4957617;29;20475;-62
2021/05/13 14:44:16;;;;;;;0.80;0.80;;;19.00;95.30;;;;;;4957966;29;20459;-62
2021/05/13 14:46:42;;;;;;;0.73;0.73;;;18.70;95.60;;;;;;4961191;29;20556;-64
2021/05/13 14:49:11;;;;;;;1.47;0.67;;;18.70;94.30;;;;;;4965811;29;20471;-62
2021/05/13 14:51:38;;;;;;;0.90;0.90;;;18.60;95.40;;;;;;4957324;29;20997;-62
2021/05/13 14:54:06;;;;;;;0.60;0.60;;;18.60;96.50;;;;;;4957422;29;20510;-62
2021/05/13 14:56:32;;;;;;;0.73;0.73;;;18.60;97.30;;;;;;4956853;28;20467;-62
2021/05/13 14:59:01;;;;;;;0.80;0.80;;;18.50;97.30;;;;;;4957258;29;20435;-62
2021/05/13 15:01:30;;;;;;;1.80;0.87;;;18.50;97.30;;;;;;4957640;29;20484;-62
2021/05/13 15:03:56;;;;;;;0.83;0.83;;;18.30;98.00;;;;;;4957486;29;20455;-63
2021/05/13 15:06:22;;;;;;;1.30;0.70;;;18.30;97.50;;;;;;4956915;29;20907;-63
2021/05/13 15:08:48;;;;;;;0.80;0.77;;;18.20;99.30;;;;;;4956714;29;20847;-63
2021/05/13 15:11:15;;;;;;;0.93;0.50;;;18.00;99.90;;;;;;4957677;29;20479;-62
2021/05/13 15:13:41;;;;;;;0.73;0.73;;;17.90;99.90;;;;;;4959953;29;20511;-62
2021/05/13 15:16:08;;;;;;;1.13;1.03;;;17.90;99.90;;;;;;4962887;29;20456;-63
2021/05/13 15:18:34;;;;;;;3.27;1.10;;;17.70;99.90;;;;;;4957646;29;20440;-62
2021/05/13 15:21:00;;;;;;;2.37;0.80;;;17.70;99.90;;;;;;4957395;29;20475;-64
2021/05/13 15:23:26;;;;;;;0.80;0.80;;;17.60;99.90;;;;;;4956930;29;20456;-63
2021/05/13 15:25:52;;;;;;;1.60;1.10;;;17.60;99.90;;;;;;4956782;29;20456;-62
2021/05/13 15:28:19;;;;;;;0.70;0.70;;;17.60;99.90;;;;;;4956599;29;20467;-63
2021/05/13 15:30:46;;;;;;;0.77;0.77;;;17.70;99.90;;;;;;4956740;29;20494;-62
2021/05/13 15:33:12;;;;;;;0.80;0.80;;;17.60;99.90;;;;;;4957880;29;20796;-62
2021/05/13 15:35:38;;;;;;;0.77;0.77;;;17.60;99.90;;;;;;4958923;29;20456;-63
2021/05/13 15:38:04;;;;;;;0.60;0.60;;;17.60;99.90;;;;;;4957182;29;20977;-63
2021/05/13 15:40:30;;;;;;;0.60;0.60;;;17.70;99.90;;;;;;4957366;29;20515;-62
2021/05/13 15:42:57;;;;;;;0.60;0.60;;;17.80;99.90;;;;;;4956983;29;20515;-62
2021/05/13 15:45:25;;;;;;;1.07;0.90;;;17.90;99.90;;;;;;4956675;29;20482;-63
2021/05/13 15:47:51;;;;;;;0.60;0.60;;;18.20;99.90;;;;;;4956241;29;20451;-64
2021/05/13 15:50:17;;;;;;;1.63;1.00;;;18.40;99.90;;;;;;4956092;29;21013;-62
2021/05/13 15:52:43;;;;;;;1.00;0.77;;;18.60;99.90;;;;;;4956463;29;20637;-62
2021/05/13 15:55:12;;;;;;;0.60;0.60;;;18.90;99.90;;;;;;4956410;29;20456;-62
2021/05/13 15:57:38;;;;;;;0.60;0.60;;;18.90;99.90;;;;;;4956334;29;20460;-62
2021/05/13 16:00:05;;;;;;;0.63;0.60;;;18.80;99.80;;;;;;4958477;29;20974;-65
2021/05/13 16:02:33;;;;;;;0.80;0.80;;;18.90;99.90;;;;;;4957436;29;20487;-62
2021/05/13 16:04:59;;;;;;;0.60;0.60;;;18.90;99.80;;;;;;4956938;29;20451;-63
2021/05/13 16:07:25;;;;;;;0.60;0.60;;;18.90;99.90;;;;;;4958236;29;20467;-62
2021/05/13 16:09:54;;;;;;;0.73;0.73;;;19.20;99.90;;;;;;4955935;28;20519;-63
2021/05/13 16:12:20;;;;;;;0.57;0.57;;;19.50;99.60;;;;;;4956690;29;20486;-62
2021/05/13 16:14:49;;;;;;;0.60;0.60;;;19.60;99.10;;;;;;4956322;29;20822;-62
2021/05/13 16:17:15;;;;;;;0.80;0.80;;;19.60;98.10;;;;;;4957348;28;20934;-62
2021/05/13 16:19:43;;;;;;;0.60;0.60;;;19.60;99.20;;;;;;4966133;29;20451;-62
2021/05/13 16:22:09;;;;;;;0.97;0.70;;;19.60;98.80;;;;;;4955941;29;20476;-63
2021/05/13 16:24:35;;;;;;;0.77;0.67;;;19.30;99.10;;;;;;4956159;29;20530;-61
2021/05/13 16:27:01;;;;;;;0.90;0.90;;;19.20;99.20;;;;;;4955677;29;20967;-62
2021/05/13 16:29:27;;;;;;;0.60;0.50;;;19.30;99.90;;;;;;4955492;29;21053;-62
2021/05/13 16:31:54;;;;;;;1.40;0.87;;;19.00;99.10;;;;;;4955890;29;20538;-63
2021/05/13 16:34:20;;;;;;;0.87;0.70;;;19.00;99.90;;;;;;4955954;29;20607;-62
2021/05/13 16:36:47;;;;;;;1.53;0.70;;;19.00;99.90;;;;;;4955906;29;20475;-61
2021/05/13 16:39:13;;;;;;;0.60;0.60;;;18.80;99.90;;;;;;4957305;29;20458;-62
2021/05/13 16:41:39;;;;;;;0.87;0.60;;;18.50;99.90;;;;;;4955894;29;20483;-61
2021/05/13 16:44:06;;;;;;;1.00;1.00;;;18.30;99.90;;;;;;4956102;29;20955;-61
2021/05/13 16:46:33;;;;;;;0.80;0.80;;;18.10;99.90;;;;;;4956007;28;20456;-62
2021/05/13 16:48:59;;;;;;;1.90;0.90;;;18.20;99.90;;;;;;4956364;29;20479;-62
2021/05/13 16:51:26;;;;;;;1.60;0.80;;;18.20;99.90;;;;;;4955841;29;20570;-61